< < Back
Terminal Aerodrome Forecast


Current Version              Previous Versions:   1  2  3  4  5  6  7  8  9  

Terminal Aerodrome Forecast

127
FTUS42 KTAE 292322
TAFDHN
TAF
KDHN 292322Z 3000/3024 19004KT P6SM SKC
     FM301100 21010KT P6SM BKN025
     FM301500 28013G23KT P6SM SCT025 BKN040
      TEMPO 3018/3022 VRB15G25KT 3SM TSRA BKN025CB=



Latest METAR

024
SAUS70 KWBC 300656
MTRDHN
METAR KDHN 300653Z AUTO 18006KT 10SM CLR 11/07 A3026 RMK AO2 SLP246
T01060072 $


USA.gov is the U.S. government's official web portal to all federal, state and local government web resources and services.